Time;durP1;ratioP1;P1;durP2;ratioP2;P2;SDS_P1;SDS_P2;PMS_P1;PMS_P2;Temp;Humidity;BMP_temperature;BMP_pressure;BME280_temperature;BME280_humidity;BME280_pressure;Samples;Min_cycle;Max_cycle;Signal;HPM_P1;HPM_P2
2022/01/20 00:00:04;;;;;;;3.95;3.65;;;;;;;2.87;81.60;99336.44;4107129;28;20196;-56
2022/01/20 00:02:06;;;;;;;4.90;4.50;;;;;;;2.95;81.40;99336.38;4119821;28;20277;-55
2022/01/20 00:04:20;;;;;;;4.00;3.70;;;;;;;2.86;81.86;99340.16;4120255;28;20211;-55
2022/01/20 00:27:28;;;;;;;3.85;3.55;;;;;;;2.95;81.06;99360.69;4127260;28;20234;-55
2022/01/20 00:29:33;;;;;;;4.20;3.90;;;;;;;2.89;81.42;99361.44;4121551;28;20564;-55
2022/01/20 00:32:19;;;;;;;5.35;4.85;;;;;;;2.88;81.67;99370.53;4122621;28;20226;-55
2022/01/20 00:34:16;;;;;;;4.65;4.35;;;;;;;2.89;81.47;99366.00;4126262;28;20301;-55
2022/01/20 00:38:39;;;;;;;5.65;5.22;;;;;;;3.06;80.90;99373.78;4123319;28;20580;-56
2022/01/20 00:40:41;;;;;;;4.15;3.85;;;;;;;2.99;81.18;99372.84;4121831;28;20230;-56
2022/01/20 00:42:43;;;;;;;4.95;4.55;;;;;;;3.04;80.92;99373.13;4139756;28;20241;-56
2022/01/20 00:44:45;;;;;;;4.95;4.55;;;;;;;3.00;81.13;99368.28;4106116;28;20744;-56
2022/01/20 00:46:47;;;;;;;4.60;4.20;;;;;;;3.02;81.52;99369.75;4103860;28;20246;-56
2022/01/20 00:48:49;;;;;;;4.50;4.20;;;;;;;3.00;81.19;99369.09;4121068;28;20277;-54
2022/01/20 00:50:51;;;;;;;5.78;5.38;;;;;;;3.00;81.41;99373.69;4119602;28;20244;-53
2022/01/20 00:52:53;;;;;;;10.30;5.05;;;;;;;2.96;81.68;99365.09;4106599;28;20238;-58
2022/01/20 00:54:55;;;;;;;6.25;5.75;;;;;;;2.93;81.90;99362.75;4124736;28;20215;-55
2022/01/20 00:56:57;;;;;;;5.82;5.35;;;;;;;2.95;81.92;99366.09;4110154;28;20203;-55
2022/01/20 00:58:59;;;;;;;5.43;4.60;;;;;;;2.94;81.85;99359.00;4124128;28;20210;-56
2022/01/20 01:01:00;;;;;;;5.25;4.75;;;;;;;3.00;81.65;99357.47;4124953;28;20230;-55
2022/01/20 01:03:03;;;;;;;6.60;6.07;;;;;;;3.02;81.42;99353.53;4125112;28;20207;-55
2022/01/20 01:05:06;;;;;;;4.93;4.53;;;;;;;3.07;81.19;99361.13;4109183;28;20314;-55
2022/01/20 01:09:13;;;;;;;6.03;5.63;;;;;;;3.06;81.66;99362.16;4139736;28;20205;-54
2022/01/20 01:11:14;;;;;;;5.53;5.13;;;;;;;3.11;81.42;99359.72;4108248;28;20227;-55
2022/01/20 01:13:18;;;;;;;5.65;5.25;;;;;;;3.01;81.69;99365.38;4125893;28;20207;-55
2022/01/20 01:15:24;;;;;;;5.90;5.40;;;;;;;3.00;82.01;99358.28;4125310;28;20203;-55
2022/01/20 01:22:03;;;;;;;5.97;5.40;;;;;;;3.07;81.72;99361.13;4128038;28;20269;-54
2022/01/20 01:24:06;;;;;;;6.32;5.82;;;;;;;3.10;81.13;99358.91;4124299;28;20423;-55
2022/01/20 01:26:13;;;;;;;5.38;4.97;;;;;;;3.15;81.28;99353.75;4126976;28;20211;-55
2022/01/20 01:28:16;;;;;;;8.98;6.55;;;;;;;3.10;81.81;99353.50;4137569;28;20209;-55
2022/01/20 01:32:32;;;;;;;7.38;6.68;;;;;;;3.09;81.47;99351.81;4142372;28;20310;-55
2022/01/20 01:34:38;;;;;;;7.35;6.82;;;;;;;3.13;81.81;99363.09;4127082;28;20202;-55
2022/01/20 01:38:48;;;;;;;7.15;6.55;;;;;;;3.17;82.15;99349.03;4137365;28;20198;-55
2022/01/20 01:40:50;;;;;;;7.05;6.55;;;;;;;3.13;81.89;99347.69;4126218;28;20235;-55
2022/01/20 01:42:53;;;;;;;7.78;7.18;;;;;;;3.14;81.57;99357.50;4119491;28;20207;-55
2022/01/20 01:44:57;;;;;;;8.32;7.72;;;;;;;3.14;81.70;99362.91;4120018;28;20210;-56
2022/01/20 01:46:59;;;;;;;8.90;8.10;;;;;;;3.14;82.17;99365.59;4121789;28;20217;-55
2022/01/20 01:49:00;;;;;;;7.53;7.03;;;;;;;3.12;81.83;99358.69;4102280;28;20215;-56
2022/01/20 01:51:02;;;;;;;8.25;7.65;;;;;;;3.15;82.24;99361.03;4107251;28;20701;-56
2022/01/20 01:53:05;;;;;;;9.48;8.68;;;;;;;3.19;82.04;99374.00;4119604;28;20211;-56
2022/01/20 01:55:08;;;;;;;9.88;9.07;;;;;;;3.10;81.76;99364.31;4138484;28;20218;-55
2022/01/20 01:57:09;;;;;;;9.50;8.80;;;;;;;3.16;82.28;99368.13;4117447;28;20238;-55
2022/01/20 01:59:11;;;;;;;9.98;9.18;;;;;;;3.16;82.11;99368.97;4116736;28;20207;-54
2022/01/20 02:01:13;;;;;;;9.32;8.43;;;;;;;3.17;82.08;99370.66;4115404;28;20230;-55
2022/01/20 02:03:15;;;;;;;9.00;8.10;;;;;;;3.21;82.02;99371.97;4098309;28;20215;-55
2022/01/20 02:05:19;;;;;;;8.95;8.15;;;;;;;3.16;82.22;99373.53;4130892;28;20206;-56
2022/01/20 02:07:47;;;;;;;11.63;10.63;;;;;;;3.20;82.19;99374.88;4119668;28;20226;-55
2022/01/20 02:17:51;;;;;;;9.82;9.10;;;;;;;3.24;82.09;99386.97;4134465;28;20233;-56
2022/01/20 02:19:13;;;;;;;11.32;10.23;;;;;;;3.24;82.00;99387.84;4130801;28;20206;-55
2022/01/20 02:21:15;;;;;;;10.77;9.75;;;;;;;3.28;82.16;99383.72;4114841;28;20226;-55
2022/01/20 02:23:17;;;;;;;10.27;9.38;;;;;;;3.23;82.26;99386.16;4121910;28;20214;-55
2022/01/20 02:25:24;;;;;;;11.40;10.48;;;;;;;3.23;82.16;99380.75;4133937;28;20212;-56
2022/01/20 02:27:25;;;;;;;10.50;9.63;;;;;;;3.26;82.57;99374.97;4120386;28;20238;-56
2022/01/20 02:29:27;;;;;;;11.55;10.55;;;;;;;3.27;82.53;99379.34;4123723;28;20206;-56
2022/01/20 02:31:29;;;;;;;12.35;11.30;;;;;;;3.33;81.98;99373.19;4137351;28;20241;-56
2022/01/20 02:33:31;;;;;;;11.13;10.23;;;;;;;3.30;82.08;99365.47;4137863;28;20297;-55
2022/01/20 02:35:37;;;;;;;11.65;10.65;;;;;;;3.25;82.23;99373.28;4139280;28;20213;-55
2022/01/20 02:37:39;;;;;;;12.75;11.55;;;;;;;3.24;81.89;99362.63;4125970;28;20254;-56
2022/01/20 02:46:49;;;;;;;11.65;10.50;;;;;;;3.25;82.44;99373.28;4137959;28;20217;-55
2022/01/20 02:48:51;;;;;;;14.27;13.07;;;;;;;3.28;81.97;99375.59;4124086;28;20254;-55
2022/01/20 02:50:52;;;;;;;13.48;12.30;;;;;;;3.29;82.46;99369.19;4138628;28;20250;-55
2022/01/20 02:52:54;;;;;;;14.52;13.13;;;;;;;3.29;82.25;99360.25;4137211;28;20206;-55
2022/01/20 02:54:57;;;;;;;15.13;13.32;;;;;;;3.44;82.25;99366.50;4142037;28;20226;-55
2022/01/20 02:56:58;;;;;;;11.77;10.90;;;;;;;3.31;81.94;99367.16;4141552;28;20233;-55
2022/01/20 02:59:00;;;;;;;13.18;12.00;;;;;;;3.35;82.13;99373.84;4138374;28;20249;-56
2022/01/20 03:01:02;;;;;;;12.27;11.15;;;;;;;3.30;82.54;99370.88;4123572;28;20274;-55
2022/01/20 03:03:04;;;;;;;12.55;11.52;;;;;;;3.38;81.67;99362.69;4140902;28;20206;-55
2022/01/20 03:05:07;;;;;;;13.35;12.25;;;;;;;3.41;82.31;99358.78;4108990;28;20802;-56
2022/01/20 03:07:09;;;;;;;12.65;11.65;;;;;;;3.39;82.09;99358.94;4121831;28;20696;-55
2022/01/20 03:09:10;;;;;;;17.75;14.13;;;;;;;3.36;82.03;99359.31;4121092;28;20207;-56
2022/01/20 03:11:12;;;;;;;14.23;13.05;;;;;;;3.33;82.31;99358.84;4139620;28;20226;-56
2022/01/20 03:13:14;;;;;;;13.25;12.25;;;;;;;3.40;81.64;99370.63;4140047;28;20210;-56
2022/01/20 03:15:16;;;;;;;15.70;14.35;;;;;;;3.29;82.47;99363.78;4120349;28;20298;-55
2022/01/20 03:17:18;;;;;;;14.35;13.05;;;;;;;3.29;82.27;99362.94;4106604;28;20211;-56
2022/01/20 03:19:22;;;;;;;13.63;12.45;;;;;;;3.21;82.04;99363.03;4125636;28;20266;-56
2022/01/20 03:21:24;;;;;;;13.48;12.43;;;;;;;3.19;82.09;99368.59;4126863;28;20308;-56
2022/01/20 03:23:26;;;;;;;12.15;11.15;;;;;;;3.17;82.19;99359.00;4122895;28;20740;-56
2022/01/20 03:25:29;;;;;;;12.52;11.43;;;;;;;3.21;82.06;99361.13;4110134;28;20214;-56
2022/01/20 03:27:31;;;;;;;14.15;12.93;;;;;;;3.08;81.88;99366.31;4140461;28;20227;-55
2022/01/20 03:29:33;;;;;;;12.48;11.18;;;;;;;3.08;82.44;99354.69;4107675;28;20213;-56
2022/01/20 03:31:35;;;;;;;13.35;12.27;;;;;;;3.05;82.10;99349.63;4136735;28;20226;-56
2022/01/20 03:33:37;;;;;;;12.98;11.90;;;;;;;3.05;82.07;99361.28;4140463;28;20238;-55
2022/01/20 03:35:41;;;;;;;12.85;11.75;;;;;;;3.08;81.94;99360.91;4132977;28;20328;-56
2022/01/20 03:37:43;;;;;;;13.68;12.38;;;;;;;2.96;81.97;99362.41;4120392;28;20261;-56
2022/01/20 03:39:44;;;;;;;14.32;13.32;;;;;;;2.91;81.56;99362.09;4125454;28;20214;-55
2022/01/20 03:41:47;;;;;;;13.32;12.32;;;;;;;2.86;82.02;99369.06;4129425;28;20227;-55
2022/01/20 03:43:49;;;;;;;13.95;12.80;;;;;;;2.92;81.82;99374.59;4125433;28;20322;-55
2022/01/20 03:45:55;;;;;;;14.15;13.05;;;;;;;2.88;82.02;99367.84;4140587;28;20237;-55
2022/01/20 03:48:06;;;;;;;13.20;12.23;;;;;;;2.81;81.75;99369.59;4138873;28;20225;-56
2022/01/20 03:50:59;;;;;;;13.18;12.07;;;;;;;2.73;81.94;99371.53;4121408;28;20214;-56
2022/01/20 03:52:30;;;;;;;12.52;11.63;;;;;;;2.73;81.93;99366.13;4140304;28;20252;-55
2022/01/20 03:54:32;;;;;;;13.35;12.35;;;;;;;2.73;81.94;99372.34;4123378;28;20243;-55
2022/01/20 03:56:35;;;;;;;11.65;10.68;;;;;;;2.71;81.90;99373.53;4106531;28;20207;-56
2022/01/20 03:58:36;;;;;;;13.40;12.30;;;;;;;2.72;81.52;99384.19;4122960;28;20203;-56
2022/01/20 04:00:38;;;;;;;12.38;11.38;;;;;;;2.66;81.59;99382.19;4123798;28;20221;-54
2022/01/20 04:02:41;;;;;;;13.05;11.93;;;;;;;2.66;82.02;99390.31;4140453;28;20206;-55
2022/01/20 04:04:43;;;;;;;14.68;12.32;;;;;;;2.68;81.74;99395.53;4108338;28;20210;-55
2022/01/20 04:06:45;;;;;;;13.45;12.55;;;;;;;2.67;82.02;99394.69;4123542;28;20208;-55
2022/01/20 04:08:47;;;;;;;13.43;12.13;;;;;;;2.66;81.56;99393.00;4139518;28;20759;-56
2022/01/20 04:10:49;;;;;;;13.95;12.65;;;;;;;2.62;81.59;99391.66;4122280;28;20238;-56
2022/01/20 04:12:51;;;;;;;11.95;10.95;;;;;;;2.52;81.72;99396.47;4117592;28;20213;-56
2022/01/20 04:14:53;;;;;;;11.55;10.57;;;;;;;2.46;81.40;99396.31;4106133;28;20321;-56
2022/01/20 04:17:05;;;;;;;11.55;10.63;;;;;;;2.53;81.82;99397.31;4135806;28;20214;-56
2022/01/20 04:19:09;;;;;;;10.27;9.18;;;;;;;2.45;81.44;99402.75;4121089;28;20199;-57
2022/01/20 04:21:11;;;;;;;11.77;10.88;;;;;;;2.52;81.49;99407.28;4135274;28;20472;-56
2022/01/20 04:23:13;;;;;;;11.13;10.13;;;;;;;2.49;81.28;99402.25;4103396;28;20270;-55
2022/01/20 04:25:15;;;;;;;10.65;9.80;;;;;;;2.55;81.24;99403.38;4103675;28;20662;-55
2022/01/20 04:27:17;;;;;;;11.50;10.48;;;;;;;2.50;81.37;99403.91;4122209;28;20215;-55
2022/01/20 04:29:18;;;;;;;9.88;9.13;;;;;;;2.56;81.56;99408.63;4121990;28;20223;-55
2022/01/20 04:31:21;;;;;;;9.85;9.05;;;;;;;2.44;81.78;99403.78;4135156;28;20229;-54
2022/01/20 04:33:23;;;;;;;10.30;9.32;;;;;;;2.44;81.27;99398.38;4116701;28;20258;-59
2022/01/20 04:35:25;;;;;;;11.30;10.20;;;;;;;2.45;81.30;99405.44;4116820;28;20210;-55
2022/01/20 04:37:26;;;;;;;13.02;10.38;;;;;;;2.45;81.15;99400.03;4120240;28;20611;-55
2022/01/20 04:39:35;;;;;;;10.07;9.25;;;;;;;2.37;81.69;99390.16;4121500;28;20206;-55
2022/01/20 04:41:36;;;;;;;10.13;9.13;;;;;;;2.37;81.56;99392.84;4137523;28;20233;-56
2022/01/20 04:43:38;;;;;;;10.75;9.35;;;;;;;2.29;81.61;99381.25;4121968;28;20229;-55
2022/01/20 04:45:50;;;;;;;10.18;9.15;;;;;;;2.24;81.90;99380.94;4120093;28;20346;-55
2022/01/20 04:48:02;;;;;;;10.57;9.55;;;;;;;2.30;82.09;99385.63;4117728;28;20214;-55
2022/01/20 04:57:19;;;;;;;8.32;7.63;;;;;;;2.27;81.53;99386.81;4134985;28;20205;-54
2022/01/20 04:59:21;;;;;;;13.00;7.60;;;;;;;2.18;81.34;99377.09;4103927;28;20236;-55
2022/01/20 05:01:23;;;;;;;8.32;7.53;;;;;;;2.15;81.58;99377.41;4136898;28;20221;-56
2022/01/20 05:03:25;;;;;;;9.52;8.63;;;;;;;2.19;81.14;99384.16;4121866;28;20223;-55
2022/01/20 05:05:27;;;;;;;8.68;7.82;;;;;;;2.15;81.28;99382.00;4118141;28;20206;-56
2022/01/20 05:07:29;;;;;;;7.45;6.85;;;;;;;2.06;81.71;99370.38;4133748;28;20312;-56
2022/01/20 05:09:32;;;;;;;7.32;6.45;;;;;;;2.11;81.59;99365.31;4130845;28;20268;-56
2022/01/20 05:11:36;;;;;;;6.60;5.95;;;;;;;2.19;80.76;99359.00;4120590;28;20270;-55
2022/01/20 05:13:40;;;;;;;6.03;5.05;;;;;;;2.14;80.76;99359.53;4122089;28;20206;-55
2022/01/20 05:15:42;;;;;;;5.90;5.30;;;;;;;2.11;80.89;99359.91;4122422;28;20207;-55
2022/01/20 05:17:44;;;;;;;6.47;5.43;;;;;;;2.08;81.18;99348.63;4121843;28;20218;-55
2022/01/20 05:19:46;;;;;;;9.82;4.88;;;;;;;2.02;80.79;99366.34;4105754;28;20215;-54
2022/01/20 05:21:47;;;;;;;5.57;4.85;;;;;;;2.05;81.01;99352.50;4122376;28;20245;-55
2022/01/20 05:23:49;;;;;;;8.07;5.55;;;;;;;2.06;80.66;99356.03;4135870;28;20206;-54
2022/01/20 05:25:51;;;;;;;10.23;4.90;;;;;;;1.97;80.92;99360.66;4115190;28;20230;-54
2022/01/20 05:27:53;;;;;;;7.13;5.82;;;;;;;1.88;81.17;99369.78;4122055;28;20207;-54
2022/01/20 05:29:55;;;;;;;11.98;5.35;;;;;;;1.98;81.07;99365.03;4121850;28;20209;-54
2022/01/20 05:31:57;;;;;;;6.78;5.45;;;;;;;1.95;80.90;99365.34;4123921;28;20639;-56
2022/01/20 05:33:59;;;;;;;8.43;4.72;;;;;;;1.91;81.44;99369.44;4124280;28;20214;-55
2022/01/20 05:36:01;;;;;;;11.27;6.03;;;;;;;1.87;81.45;99378.88;4123557;28;20210;-56
2022/01/20 05:38:03;;;;;;;12.02;6.63;;;;;;;1.83;81.48;99379.41;4138502;28;20213;-54
2022/01/20 05:40:06;;;;;;;10.23;7.15;;;;;;;1.78;81.11;99379.09;4123853;28;20215;-55
2022/01/20 05:42:08;;;;;;;10.68;6.25;;;;;;;1.75;81.54;99385.66;4137959;28;20233;-55
2022/01/20 05:44:10;;;;;;;5.07;4.65;;;;;;;1.79;81.55;99392.41;4126793;28;20207;-55
2022/01/20 05:46:14;;;;;;;8.70;6.22;;;;;;;1.75;81.11;99401.84;4142165;28;20202;-56
2022/01/20 05:48:21;;;;;;;6.55;5.90;;;;;;;1.72;80.99;99404.91;4130119;28;20332;-55
2022/01/20 05:50:23;;;;;;;8.73;5.88;;;;;;;1.74;81.48;99400.19;4114731;28;20212;-56
2022/01/20 05:52:25;;;;;;;6.40;5.90;;;;;;;1.68;81.37;99400.03;4144551;28;20210;-56
2022/01/20 05:54:26;;;;;;;10.00;6.15;;;;;;;1.63;81.23;99408.66;4142074;28;20190;-56
2022/01/20 05:56:28;;;;;;;6.05;5.55;;;;;;;1.67;81.21;99409.97;4145997;28;22041;-55
2022/01/20 05:58:30;;;;;;;5.90;5.40;;;;;;;1.64;80.99;99399.53;4112595;28;20203;-55
2022/01/20 06:00:35;;;;;;;6.20;5.65;;;;;;;1.60;80.54;99402.75;4144819;28;20236;-55
2022/01/20 06:03:36;;;;;;;9.52;6.32;;;;;;;1.58;81.39;99411.00;4129131;28;20233;-55
2022/01/20 06:04:59;;;;;;;5.75;5.13;;;;;;;1.62;80.93;99404.25;4147280;28;20202;-55
2022/01/20 06:07:03;;;;;;;10.27;6.55;;;;;;;1.71;81.18;99395.13;4145205;28;20202;-55
2022/01/20 06:09:05;;;;;;;10.68;5.78;;;;;;;1.69;80.74;99404.41;4126776;28;20214;-55
2022/01/20 06:11:08;;;;;;;6.75;6.00;;;;;;;1.73;80.72;99389.59;4115132;28;20227;-55
2022/01/20 06:13:10;;;;;;;12.15;7.20;;;;;;;1.73;80.84;99398.50;4129561;28;20258;-55
2022/01/20 06:15:13;;;;;;;11.18;6.35;;;;;;;1.71;80.52;99407.78;4116428;28;20187;-55
2022/01/20 06:17:15;;;;;;;9.30;4.85;;;;;;;1.86;80.88;99397.94;4145875;28;20215;-56
2022/01/20 06:19:16;;;;;;;9.88;5.40;;;;;;;1.73;80.50;99394.97;4111966;28;20479;-55
2022/01/20 06:21:18;;;;;;;7.95;5.90;;;;;;;1.72;80.59;99396.81;4130083;28;20246;-55
2022/01/20 06:23:21;;;;;;;29.30;5.63;;;;;;;1.76;80.30;99392.78;4129166;28;20210;-55
2022/01/20 06:25:22;;;;;;;7.38;5.72;;;;;;;1.72;79.91;99395.97;4127900;28;20203;-55
2022/01/20 06:27:24;;;;;;;7.55;5.00;;;;;;;1.69;80.44;99383.66;4143863;28;20202;-55
2022/01/20 06:29:26;;;;;;;6.43;5.80;;;;;;;1.72;80.38;99372.53;4126291;28;20309;-55
2022/01/20 06:31:28;;;;;;;7.95;4.75;;;;;;;1.75;80.46;99369.47;4115777;28;20210;-55
2022/01/20 06:33:30;;;;;;;16.83;6.05;;;;;;;1.74;80.32;99373.19;4127863;28;20237;-55
2022/01/20 06:35:32;;;;;;;8.00;5.10;;;;;;;1.74;80.79;99392.09;4127804;28;20202;-55
2022/01/20 06:37:34;;;;;;;9.27;4.85;;;;;;;1.82;80.29;99391.22;4141555;28;20258;-55
2022/01/20 06:39:36;;;;;;;9.43;6.05;;;;;;;1.72;80.68;99393.25;4112848;28;20196;-55
2022/01/20 06:41:38;;;;;;;11.38;5.45;;;;;;;1.78;80.96;99406.91;4126514;28;20222;-55
2022/01/20 06:43:39;;;;;;;8.50;6.55;;;;;;;1.81;80.59;99401.16;4122630;28;20207;-55
2022/01/20 06:45:45;;;;;;;12.18;6.63;;;;;;;1.69;80.91;99397.16;4139865;28;20337;-54
2022/01/20 06:47:48;;;;;;;11.32;6.85;;;;;;;1.66;80.77;99397.50;4125126;28;20195;-55
2022/01/20 06:49:49;;;;;;;15.57;7.18;;;;;;;1.71;80.59;99394.28;4139045;28;20234;-55
2022/01/20 06:51:51;;;;;;;13.90;7.40;;;;;;;1.72;80.54;99401.38;4139173;28;20264;-55
2022/01/20 06:53:53;;;;;;;23.65;7.30;;;;;;;1.66;80.88;99392.13;4128170;28;20198;-55
2022/01/20 06:55:58;;;;;;;12.23;6.20;;;;;;;1.74;80.26;99388.56;4128229;28;20214;-56
2022/01/20 06:57:59;;;;;;;7.60;6.13;;;;;;;1.66;80.36;99396.66;4141716;28;20198;-56
2022/01/20 07:00:04;;;;;;;6.95;6.32;;;;;;;1.67;80.56;99396.50;4108280;28;20199;-55
2022/01/20 07:02:05;;;;;;;8.75;6.35;;;;;;;1.73;80.21;99397.69;4121307;28;20219;-56
2022/01/20 07:04:10;;;;;;;15.70;6.97;;;;;;;1.68;80.41;99417.03;4125491;28;20307;-56
2022/01/20 07:06:11;;;;;;;11.63;6.25;;;;;;;1.68;80.92;99427.84;4125783;28;20632;-56
2022/01/20 07:08:18;;;;;;;23.27;8.50;;;;;;;1.64;80.40;99445.41;4128782;28;20199;-55
2022/01/20 07:10:21;;;;;;;10.57;6.75;;;;;;;1.65;80.47;99444.38;4133403;28;20203;-57
2022/01/20 07:12:23;;;;;;;8.02;6.63;;;;;;;1.67;80.10;99453.13;4116974;28;20203;-56
2022/01/20 07:14:25;;;;;;;9.13;6.60;;;;;;;1.68;80.54;99454.81;4116375;28;20239;-55
2022/01/20 07:16:35;;;;;;;8.75;5.72;;;;;;;1.76;80.30;99462.91;4146418;28;20190;-55
2022/01/20 07:18:37;;;;;;;10.95;7.00;;;;;;;1.81;80.45;99460.53;4130573;28;20208;-56
2022/01/20 07:20:39;;;;;;;19.70;8.18;;;;;;;1.70;80.06;99444.72;4130396;28;20234;-55
2022/01/20 07:22:42;;;;;;;11.80;8.50;;;;;;;1.76;80.31;99452.13;4147532;28;20198;-57
2022/01/20 07:24:44;;;;;;;13.52;6.60;;;;;;;1.74;80.30;99461.41;4148179;28;20202;-56
2022/01/20 07:26:46;;;;;;;10.90;6.50;;;;;;;1.74;80.26;99474.88;4131521;28;20222;-57
2022/01/20 07:28:47;;;;;;;12.07;7.32;;;;;;;1.79;80.31;99478.75;4130145;28;20234;-56
2022/01/20 07:30:49;;;;;;;9.75;7.18;;;;;;;1.85;80.51;99482.59;4144878;28;20230;-56
2022/01/20 07:32:51;;;;;;;9.52;6.07;;;;;;;1.81;79.96;99487.50;4137324;28;20206;-56
2022/01/20 07:34:53;;;;;;;10.23;7.80;;;;;;;1.76;80.38;99486.34;4123989;28;20210;-62
2022/01/20 07:36:55;;;;;;;13.05;6.28;;;;;;;1.89;80.87;99479.38;4126377;28;20252;-56
2022/01/20 07:38:58;;;;;;;6.80;6.13;;;;;;;1.87;80.20;99486.81;4125753;28;20230;-60
2022/01/20 07:41:03;;;;;;;8.98;7.07;;;;;;;1.67;80.05;99480.09;4111924;28;20774;-54
2022/01/20 07:43:08;;;;;;;7.78;5.60;;;;;;;1.67;80.36;99479.28;4110047;28;20269;-55
2022/01/20 07:45:13;;;;;;;12.88;7.05;;;;;;;1.76;80.17;99489.03;4098078;28;20211;-58
2022/01/20 07:47:17;;;;;;;14.25;7.00;;;;;;;1.69;80.26;99486.16;4127836;28;20222;-54
2022/01/20 07:49:19;;;;;;;12.50;6.22;;;;;;;1.73;80.04;99495.59;4111669;28;20290;-58
2022/01/20 07:51:22;;;;;;;10.02;7.20;;;;;;;1.79;80.13;99492.22;4095243;28;20322;-60
2022/01/20 07:53:24;;;;;;;14.27;7.93;;;;;;;1.71;79.96;99497.66;4098127;28;20749;-61
2022/01/20 07:55:27;;;;;;;12.88;6.97;;;;;;;1.69;80.37;99488.03;4127406;28;20202;-57
2022/01/20 07:57:32;;;;;;;12.57;7.20;;;;;;;1.69;80.54;99488.03;4112490;28;20964;-58
2022/01/20 07:59:36;;;;;;;18.15;6.60;;;;;;;1.71;80.83;99491.38;4127828;28;20761;-55
2022/01/20 08:01:42;;;;;;;16.35;6.93;;;;;;;1.71;80.79;99500.34;4129421;28;20230;-56
2022/01/20 08:03:44;;;;;;;14.63;7.00;;;;;;;1.78;80.73;99498.66;4129211;28;20199;-56
2022/01/20 08:05:46;;;;;;;13.77;6.53;;;;;;;1.73;80.27;99506.41;4146903;28;20659;-56
2022/01/20 08:07:48;;;;;;;11.73;6.45;;;;;;;1.81;80.68;99498.28;4143515;28;20214;-56
2022/01/20 08:09:57;;;;;;;12.93;6.13;;;;;;;1.83;80.21;99498.97;4123612;28;20226;-55
2022/01/20 08:12:01;;;;;;;17.50;6.65;;;;;;;1.84;80.56;99497.09;4141588;28;20281;-54
2022/01/20 08:14:03;;;;;;;15.70;7.63;;;;;;;1.94;80.74;99498.59;4105612;28;20210;-54
2022/01/20 08:16:05;;;;;;;20.88;6.80;;;;;;;1.91;80.83;99501.66;4123357;28;20271;-56
2022/01/20 08:18:07;;;;;;;15.00;7.95;;;;;;;1.90;80.31;99499.97;4122204;28;20211;-54
2022/01/20 08:20:10;;;;;;;21.65;6.65;;;;;;;1.96;80.59;99493.91;4137643;28;20541;-56
2022/01/20 08:22:12;;;;;;;14.77;6.35;;;;;;;1.96;80.67;99507.41;4138985;28;20232;-56
2022/01/20 08:24:43;;;;;;;16.55;6.40;;;;;;;2.06;80.64;99491.84;4128518;28;20214;-56
2022/01/20 08:26:50;;;;;;;10.65;6.88;;;;;;;2.67;80.60;99502.75;4112502;28;20210;-60
2022/01/20 08:28:52;;;;;;;8.95;6.88;;;;;;;2.74;78.32;99503.72;4124677;28;20225;-58
2022/01/20 08:30:56;;;;;;;11.65;7.07;;;;;;;3.23;79.19;99498.88;4125958;28;20771;-56
2022/01/20 08:33:24;;;;;;;7.18;6.38;;;;;;;3.91;77.48;99505.91;4123184;28;20206;-56
2022/01/20 08:35:37;;;;;;;13.40;6.32;;;;;;;4.41;73.95;99508.75;4144783;28;20225;-56
2022/01/20 08:37:43;;;;;;;10.57;6.18;;;;;;;4.23;74.56;99505.59;4129868;28;20258;-55
2022/01/20 08:39:45;;;;;;;16.70;7.57;;;;;;;4.42;74.84;99515.88;4130755;28;20242;-56
2022/01/20 08:41:49;;;;;;;16.92;7.13;;;;;;;4.20;74.79;99535.75;4129145;28;20257;-56
2022/01/20 08:43:51;;;;;;;10.88;7.32;;;;;;;3.93;74.50;99540.94;4146815;28;20206;-56
2022/01/20 08:45:53;;;;;;;13.05;5.85;;;;;;;3.65;75.32;99543.38;4130153;28;20221;-56
2022/01/20 08:47:57;;;;;;;18.23;6.72;;;;;;;3.45;76.45;99535.91;4140159;28;20202;-55
2022/01/20 08:50:07;;;;;;;12.50;6.95;;;;;;;3.26;76.77;99531.81;4115914;28;20237;-56
2022/01/20 08:52:13;;;;;;;12.25;6.35;;;;;;;3.25;76.65;99545.50;4129199;28;20242;-57
2022/01/20 08:54:23;;;;;;;13.75;7.28;;;;;;;3.24;77.08;99535.72;4128545;28;20211;-55
2022/01/20 08:56:28;;;;;;;10.63;7.60;;;;;;;3.51;77.13;99543.28;4127745;28;20214;-55
2022/01/20 08:58:33;;;;;;;22.83;8.30;;;;;;;4.09;76.83;99541.63;4128816;28;20207;-56
2022/01/20 09:00:45;;;;;;;10.80;7.85;;;;;;;4.66;75.24;99534.56;4144175;28;20232;-55
2022/01/20 09:02:47;;;;;;;13.60;7.28;;;;;;;5.09;72.32;99536.38;4145177;28;20214;-55
2022/01/20 09:04:49;;;;;;;18.00;8.82;;;;;;;5.39;72.86;99543.41;4132462;28;20566;-56
2022/01/20 09:06:59;;;;;;;7.40;6.30;;;;;;;5.66;70.20;99540.78;4125809;28;20293;-56
2022/01/20 09:09:09;;;;;;;10.48;6.63;;;;;;;6.26;70.16;99543.00;4132461;28;20194;-56
2022/01/20 09:11:19;;;;;;;13.75;6.70;;;;;;;6.58;68.95;99547.81;4145412;28;20224;-56
2022/01/20 09:15:43;;;;;;;17.30;6.70;;;;;;;6.49;66.92;99540.88;4125812;28;20214;-63
2022/01/20 09:17:45;;;;;;;11.75;7.05;;;;;;;6.23;67.14;99544.22;4110168;28;20684;-53
2022/01/20 09:19:57;;;;;;;20.63;10.38;;;;;;;6.16;67.87;99542.50;4106678;28;20285;-57
2022/01/20 09:21:59;;;;;;;14.15;8.35;;;;;;;5.79;67.99;99540.03;4108995;28;20258;-54
2022/01/20 09:24:01;;;;;;;12.73;6.13;;;;;;;5.27;70.19;99531.34;4110402;28;20207;-54
2022/01/20 09:26:03;;;;;;;14.02;7.30;;;;;;;5.13;71.27;99526.00;4108718;28;20210;-55
2022/01/20 09:28:06;;;;;;;9.30;6.60;;;;;;;4.70;71.84;99535.88;4106885;28;20218;-58
2022/01/20 09:31:23;;;;;;;9.95;7.13;;;;;;;4.80;72.39;99528.28;4111874;28;20481;-56
2022/01/20 09:35:00;;;;;;;13.52;7.43;;;;;;;4.80;73.41;99528.28;4123830;28;20206;-56
2022/01/20 09:37:03;;;;;;;10.40;7.05;;;;;;;4.70;73.29;99529.59;4116253;28;20191;-56
2022/01/20 09:39:05;;;;;;;9.15;7.13;;;;;;;4.66;73.53;99533.72;4129283;28;20266;-55
2022/01/20 09:41:07;;;;;;;10.73;6.28;;;;;;;4.64;73.23;99531.19;4126843;28;20227;-56
2022/01/20 09:43:14;;;;;;;16.45;6.88;;;;;;;4.60;73.54;99535.31;4127520;28;20203;-58
2022/01/20 09:45:16;;;;;;;20.00;7.43;;;;;;;4.50;73.69;99531.19;4109951;28;20322;-56
2022/01/20 09:47:54;;;;;;;10.93;7.82;;;;;;;4.54;74.47;99536.03;4109050;28;20229;-57
2022/01/20 09:49:56;;;;;;;9.38;5.85;;;;;;;4.54;74.23;99530.63;4143660;28;20218;-54
2022/01/20 09:51:58;;;;;;;11.40;9.25;;;;;;;4.52;74.47;99542.66;4108542;28;20325;-55
2022/01/20 09:54:01;;;;;;;13.85;8.73;;;;;;;4.52;74.35;99554.38;4117165;28;20854;-55
2022/01/20 09:56:19;;;;;;;10.95;8.38;;;;;;;4.61;74.16;99547.00;4095953;28;20202;-57
2022/01/20 09:58:21;;;;;;;21.40;9.02;;;;;;;4.68;74.10;99556.06;4140755;28;20202;-56
2022/01/20 10:00:25;;;;;;;9.82;5.50;;;;;;;5.41;73.31;99561.16;4126448;28;20203;-56
2022/01/20 10:02:27;;;;;;;12.23;5.55;;;;;;;6.15;72.27;99573.44;4124802;28;20257;-55
2022/01/20 10:04:32;;;;;;;15.85;4.95;;;;;;;7.03;68.46;99569.00;4112537;28;20897;-55
2022/01/20 10:06:38;;;;;;;9.90;5.50;;;;;;;7.44;67.72;99577.97;4131087;28;20273;-55
2022/01/20 10:08:40;;;;;;;9.88;5.07;;;;;;;7.40;67.80;99582.16;4145330;28;20191;-56
2022/01/20 10:10:45;;;;;;;9.98;4.05;;;;;;;7.01;66.88;99587.41;4144879;28;20232;-55
2022/01/20 10:12:47;;;;;;;7.43;4.80;;;;;;;6.45;68.11;99600.25;4128356;28;20535;-56
2022/01/20 10:14:57;;;;;;;12.65;4.25;;;;;;;6.00;69.72;99602.53;4128975;28;20214;-56
2022/01/20 10:16:59;;;;;;;6.72;4.15;;;;;;;5.90;69.13;99602.03;4129429;28;20206;-55
2022/01/20 10:19:05;;;;;;;4.43;3.58;;;;;;;5.74;69.96;99596.81;4114658;28;20226;-55
2022/01/20 10:21:07;;;;;;;9.65;4.45;;;;;;;6.08;70.78;99599.72;4146812;28;20260;-55
2022/01/20 10:23:39;;;;;;;4.28;3.58;;;;;;;6.65;69.54;99603.09;4144818;28;20198;-55
2022/01/20 10:25:43;;;;;;;10.48;3.75;;;;;;;7.01;69.41;99615.47;4125491;28;20211;-54
2022/01/20 10:27:51;;;;;;;5.70;2.22;;;;;;;6.32;68.42;99635.47;4120481;28;20212;-54
2022/01/20 10:29:59;;;;;;;4.40;1.77;;;;;;;5.41;67.39;99630.88;4110163;28;20223;-54
2022/01/20 10:32:03;;;;;;;4.00;2.10;;;;;;;4.81;69.10;99632.97;4108464;28;20222;-59
2022/01/20 10:34:18;;;;;;;3.45;2.28;;;;;;;4.26;70.41;99640.66;4109912;28;20238;-55
2022/01/20 10:39:18;;;;;;;6.53;2.85;;;;;;;3.62;72.43;99632.19;4123877;28;20207;-55
2022/01/20 10:41:41;;;;;;;10.48;2.65;;;;;;;3.39;73.11;99634.84;4122581;28;20301;-56
2022/01/20 10:43:45;;;;;;;4.60;2.38;;;;;;;3.38;73.50;99637.72;4144594;28;20217;-56
2022/01/20 10:46:05;;;;;;;6.10;1.92;;;;;;;3.01;73.56;99645.69;4123603;28;20210;-56
2022/01/20 10:48:17;;;;;;;4.78;2.00;;;;;;;2.92;74.14;99647.56;4111652;28;20195;-56